Time;durP1;ratioP1;P1;durP2;ratioP2;P2;SDS_P1;SDS_P2;PMS_P1;PMS_P2;Temp;Humidity;BMP_temperature;BMP_pressure;BME280_temperature;BME280_humidity;BME280_pressure;Samples;Min_cycle;Max_cycle;Signal;HPM_P1;HPM_P2
2022/01/20 00:00:20;;;;;;;1.85;1.05;;;19.40;48.60;;;;;;6168879;28;20039;-70
2022/01/20 00:03:24;;;;;;;0.93;0.73;;;19.40;48.60;;;;;;6169357;28;20022;-70
2022/01/20 00:26:15;;;;;;;1.35;0.80;;;19.30;48.70;;;;;;6172104;28;20027;-70
2022/01/20 00:29:24;;;;;;;1.15;0.93;;;19.30;48.70;;;;;;6193450;28;20041;-70
2022/01/20 00:32:37;;;;;;;1.15;1.00;;;19.30;48.60;;;;;;6192533;28;20546;-70
2022/01/20 00:38:46;;;;;;;1.50;0.73;;;19.30;48.70;;;;;;6193258;28;20041;-70
2022/01/20 00:41:46;;;;;;;0.95;0.70;;;19.30;48.70;;;;;;6192935;28;20393;-70
2022/01/20 00:44:47;;;;;;;0.70;0.70;;;19.30;48.60;;;;;;6193032;28;20129;-70
2022/01/20 00:47:47;;;;;;;1.40;0.82;;;19.30;48.60;;;;;;6192822;28;20100;-70
2022/01/20 00:50:48;;;;;;;1.95;0.82;;;19.30;48.60;;;;;;6192480;28;20096;-70
2022/01/20 00:53:51;;;;;;;1.13;0.70;;;19.30;48.60;;;;;;6175130;28;20023;-70
2022/01/20 00:56:52;;;;;;;1.67;0.80;;;19.30;48.70;;;;;;6172912;28;20104;-70
2022/01/20 00:59:52;;;;;;;1.73;0.88;;;19.30;48.70;;;;;;6172730;28;20027;-70
2022/01/20 01:02:53;;;;;;;1.30;0.90;;;19.30;48.70;;;;;;6172920;28;20027;-70
2022/01/20 01:09:13;;;;;;;1.65;0.80;;;19.30;48.70;;;;;;6172467;28;20082;-70
2022/01/20 01:12:19;;;;;;;1.42;0.80;;;19.30;48.70;;;;;;6173560;28;20033;-70
2022/01/20 01:15:25;;;;;;;1.50;1.00;;;19.30;48.70;;;;;;6173316;28;20189;-70
2022/01/20 01:21:52;;;;;;;1.63;0.70;;;19.30;48.70;;;;;;6171805;28;20394;-70
2022/01/20 01:24:55;;;;;;;0.98;0.80;;;19.30;48.60;;;;;;6172374;28;20483;-70
2022/01/20 01:27:57;;;;;;;1.58;0.90;;;19.30;48.60;;;;;;6188391;28;20034;-70
2022/01/20 01:34:21;;;;;;;2.33;0.88;;;19.30;48.60;;;;;;6195658;28;20030;-70
2022/01/20 01:40:29;;;;;;;1.55;0.80;;;19.30;48.60;;;;;;6196141;28;20030;-70
2022/01/20 01:43:31;;;;;;;1.47;0.80;;;19.30;48.60;;;;;;6196615;28;20033;-70
2022/01/20 01:46:32;;;;;;;1.13;0.80;;;19.30;48.60;;;;;;6196221;28;20030;-70
2022/01/20 01:49:33;;;;;;;1.38;0.82;;;19.30;48.60;;;;;;6195892;28;20033;-70
2022/01/20 01:52:34;;;;;;;1.65;0.70;;;19.30;48.70;;;;;;6188113;28;20058;-70
2022/01/20 01:55:36;;;;;;;1.27;0.80;;;19.30;48.60;;;;;;6171501;28;20474;-70
2022/01/20 01:58:36;;;;;;;1.27;0.75;;;19.30;48.70;;;;;;6174747;28;20033;-70
2022/01/20 02:01:38;;;;;;;2.03;0.80;;;19.30;48.70;;;;;;6195358;28;20038;-70
2022/01/20 02:04:39;;;;;;;2.28;1.00;;;19.30;48.60;;;;;;6195734;28;20027;-70
2022/01/20 02:20:39;;;;;;;1.48;0.60;;;19.30;48.60;;;;;;6195788;28;20034;-70
2022/01/20 02:23:39;;;;;;;2.83;1.40;;;19.30;48.60;;;;;;6195311;28;20033;-70
2022/01/20 02:26:40;;;;;;;1.13;0.73;;;19.30;48.60;;;;;;6195039;28;20022;-70
2022/01/20 02:29:41;;;;;;;1.90;1.00;;;19.30;48.60;;;;;;6195085;28;20034;-70
2022/01/20 02:32:42;;;;;;;2.17;0.88;;;19.30;48.60;;;;;;6194436;28;20061;-70
2022/01/20 02:36:05;;;;;;;2.50;0.82;;;19.30;48.60;;;;;;6195200;28;20037;-70
2022/01/20 02:39:26;;;;;;;2.33;0.85;;;19.30;48.60;;;;;;6194847;28;20516;-70
2022/01/20 02:45:46;;;;;;;1.17;0.90;;;19.30;48.70;;;;;;6195217;28;20066;-70
2022/01/20 02:48:46;;;;;;;1.42;0.70;;;19.30;48.60;;;;;;6194551;28;20111;-70
2022/01/20 02:51:53;;;;;;;1.95;0.90;;;19.30;48.60;;;;;;6193250;28;20033;-70
2022/01/20 02:54:54;;;;;;;2.35;0.90;;;19.30;48.60;;;;;;6170437;28;20447;-70
2022/01/20 02:57:55;;;;;;;2.67;0.80;;;19.30;48.60;;;;;;6170126;28;20437;-70
2022/01/20 03:00:57;;;;;;;2.05;0.90;;;19.30;48.60;;;;;;6170497;28;20019;-70
2022/01/20 03:03:58;;;;;;;1.42;0.80;;;19.30;48.60;;;;;;6170405;28;20444;-70
2022/01/20 03:06:59;;;;;;;2.85;1.00;;;19.30;48.60;;;;;;6170169;28;20133;-70
2022/01/20 03:10:00;;;;;;;1.63;0.88;;;19.30;48.60;;;;;;6169649;28;20051;-70
2022/01/20 03:13:00;;;;;;;3.58;0.93;;;19.30;48.60;;;;;;6170336;28;20081;-70
2022/01/20 03:16:01;;;;;;;1.65;0.60;;;19.30;48.60;;;;;;6169824;28;20461;-70
2022/01/20 03:19:02;;;;;;;1.70;0.80;;;19.30;48.60;;;;;;6169235;28;20137;-70
2022/01/20 03:22:03;;;;;;;3.33;0.77;;;19.30;48.60;;;;;;6170621;28;20031;-70
2022/01/20 03:25:04;;;;;;;2.95;1.10;;;19.30;48.60;;;;;;6170019;28;20031;-70
2022/01/20 03:28:04;;;;;;;2.10;0.82;;;19.30;48.60;;;;;;6187311;28;20525;-70
2022/01/20 03:31:05;;;;;;;3.13;0.80;;;19.30;48.60;;;;;;6193531;28;20088;-70
2022/01/20 03:34:06;;;;;;;2.22;0.77;;;19.30;48.60;;;;;;6193471;28;20026;-70
2022/01/20 03:37:06;;;;;;;2.63;0.90;;;19.30;48.60;;;;;;6193694;28;20823;-70
2022/01/20 03:40:08;;;;;;;4.28;1.35;;;19.30;48.60;;;;;;6193865;28;20038;-70
2022/01/20 03:43:09;;;;;;;2.55;1.05;;;19.30;48.50;;;;;;6194137;28;20037;-70
2022/01/20 03:46:12;;;;;;;3.55;1.15;;;19.30;48.60;;;;;;6193435;28;20038;-70
2022/01/20 03:49:27;;;;;;;2.92;1.20;;;19.30;48.60;;;;;;6193451;28;20049;-70
2022/01/20 03:52:28;;;;;;;3.95;1.30;;;19.30;48.60;;;;;;6187085;28;20031;-70
2022/01/20 03:55:28;;;;;;;3.38;1.25;;;19.30;48.70;;;;;;6169460;28;20401;-69
2022/01/20 03:58:29;;;;;;;6.38;1.40;;;19.30;48.60;;;;;;6170109;28;20037;-70
2022/01/20 04:01:29;;;;;;;5.53;1.60;;;19.30;48.70;;;;;;6169221;28;20452;-70
2022/01/20 04:04:30;;;;;;;5.78;2.05;;;19.30;48.70;;;;;;6169382;28;20023;-70
2022/01/20 04:07:30;;;;;;;5.85;2.08;;;19.30;48.70;;;;;;6170039;28;20038;-70
2022/01/20 04:10:31;;;;;;;10.38;2.63;;;19.30;48.70;;;;;;6168833;28;20252;-70
2022/01/20 04:13:32;;;;;;;7.88;2.25;;;19.30;48.70;;;;;;6169523;28;20035;-71
2022/01/20 04:17:00;;;;;;;7.70;2.25;;;19.30;48.70;;;;;;6169330;28;20528;-70
2022/01/20 04:20:03;;;;;;;6.00;2.03;;;19.30;48.70;;;;;;6169147;28;20110;-71
2022/01/20 04:23:03;;;;;;;7.63;2.53;;;19.30;48.70;;;;;;6168556;28;20042;-70
2022/01/20 04:26:04;;;;;;;9.82;2.75;;;19.30;48.70;;;;;;6170787;28;20031;-70
2022/01/20 04:29:06;;;;;;;8.73;2.63;;;19.30;48.70;;;;;;6194433;28;20041;-70
2022/01/20 04:32:07;;;;;;;7.50;2.15;;;19.30;48.70;;;;;;6197574;28;20049;-70
2022/01/20 04:35:08;;;;;;;6.47;2.28;;;19.30;48.60;;;;;;6197759;28;20078;-69
2022/01/20 04:38:09;;;;;;;9.65;2.50;;;19.30;48.60;;;;;;6198041;28;20034;-70
2022/01/20 04:41:10;;;;;;;7.68;2.33;;;19.30;48.50;;;;;;6197162;28;20401;-73
2022/01/20 04:44:20;;;;;;;7.80;2.42;;;19.30;48.50;;;;;;6197461;28;20410;-70
2022/01/20 04:57:21;;;;;;;7.95;2.60;;;19.30;48.30;;;;;;6194494;28;20026;-70
2022/01/20 05:00:22;;;;;;;10.75;2.42;;;19.30;48.20;;;;;;6197102;28;20501;-70
2022/01/20 05:03:24;;;;;;;9.27;3.00;;;19.30;48.40;;;;;;6196964;28;20037;-70
2022/01/20 05:06:25;;;;;;;12.45;3.10;;;19.30;49.10;;;;;;6197540;28;20038;-70
2022/01/20 05:09:25;;;;;;;8.13;2.70;;;19.30;49.20;;;;;;6196889;28;20053;-70
2022/01/20 05:12:37;;;;;;;7.72;2.88;;;19.30;49.30;;;;;;6196618;28;20493;-70
2022/01/20 05:15:39;;;;;;;7.57;2.22;;;19.30;49.00;;;;;;6196853;28;20425;-70
2022/01/20 05:18:40;;;;;;;7.10;2.50;;;19.30;49.10;;;;;;6197057;28;20292;-70
2022/01/20 05:21:40;;;;;;;6.78;2.53;;;19.30;49.20;;;;;;6195980;28;20030;-70
2022/01/20 05:24:40;;;;;;;7.85;2.20;;;19.30;49.10;;;;;;6199185;28;20022;-70
2022/01/20 05:27:41;;;;;;;6.70;2.10;;;19.30;49.10;;;;;;6196839;28;20030;-70
2022/01/20 05:30:41;;;;;;;8.23;2.17;;;19.30;49.00;;;;;;6196416;28;20041;-70
2022/01/20 05:33:42;;;;;;;8.02;2.17;;;19.30;49.00;;;;;;6196330;28;20057;-70
2022/01/20 05:36:44;;;;;;;4.88;1.83;;;19.30;48.90;;;;;;6196583;28;20058;-70
2022/01/20 05:39:44;;;;;;;6.60;2.17;;;19.30;48.80;;;;;;6195688;28;20118;-70
2022/01/20 05:42:45;;;;;;;4.57;2.00;;;19.40;48.90;;;;;;6195912;28;20037;-70
2022/01/20 05:45:46;;;;;;;6.60;2.03;;;19.40;49.50;;;;;;6196244;28;20385;-70
2022/01/20 05:48:48;;;;;;;6.20;1.90;;;19.40;48.80;;;;;;6196224;28;20070;-70
2022/01/20 05:51:54;;;;;;;4.10;1.70;;;19.40;48.80;;;;;;6194215;28;20030;-70
2022/01/20 05:54:55;;;;;;;4.70;1.52;;;19.40;48.70;;;;;;6172010;28;20033;-70
2022/01/20 05:57:55;;;;;;;5.68;1.88;;;19.40;48.70;;;;;;6172406;28;20466;-70
2022/01/20 06:00:56;;;;;;;5.00;1.67;;;19.40;48.60;;;;;;6188759;28;20536;-70
2022/01/20 06:03:56;;;;;;;4.85;1.15;;;19.40;48.70;;;;;;6171781;28;20034;-70
2022/01/20 06:06:57;;;;;;;3.92;1.45;;;19.40;48.60;;;;;;6171731;28;20089;-70
2022/01/20 06:09:57;;;;;;;5.78;1.77;;;19.40;48.60;;;;;;6170861;28;20134;-70
2022/01/20 06:12:59;;;;;;;5.68;1.88;;;19.40;48.50;;;;;;6179303;28;20027;-70
2022/01/20 06:16:00;;;;;;;4.03;1.70;;;19.40;48.50;;;;;;6193964;28;20057;-70
2022/01/20 06:19:01;;;;;;;4.65;1.75;;;19.40;48.50;;;;;;6195648;28;20443;-70
2022/01/20 06:22:01;;;;;;;5.70;1.73;;;19.40;48.40;;;;;;6195167;28;20041;-70
2022/01/20 06:25:03;;;;;;;3.33;1.45;;;19.40;48.40;;;;;;6195183;28;20106;-71
2022/01/20 06:28:05;;;;;;;4.00;1.58;;;19.40;48.50;;;;;;6194521;28;20504;-70
2022/01/20 06:31:05;;;;;;;5.00;1.80;;;19.40;48.60;;;;;;6194877;28;20545;-70
2022/01/20 06:34:06;;;;;;;3.03;1.40;;;19.40;48.60;;;;;;6193552;28;20023;-70
2022/01/20 06:37:06;;;;;;;3.60;1.42;;;19.40;48.60;;;;;;6194370;28;20026;-70
2022/01/20 06:40:08;;;;;;;3.05;1.60;;;19.40;48.70;;;;;;6194865;28;20045;-70
2022/01/20 06:43:09;;;;;;;5.47;1.48;;;19.40;48.70;;;;;;6194932;28;20477;-70
2022/01/20 06:46:09;;;;;;;3.97;1.50;;;19.40;48.70;;;;;;6194698;28;20030;-70
2022/01/20 06:49:10;;;;;;;5.07;1.60;;;19.40;48.80;;;;;;6194311;28;20042;-70
2022/01/20 06:52:10;;;;;;;4.47;1.27;;;19.40;48.70;;;;;;6190344;28;20473;-70
2022/01/20 06:55:13;;;;;;;3.28;1.20;;;19.40;48.70;;;;;;6171119;28;20037;-70
2022/01/20 06:58:13;;;;;;;1.85;1.13;;;19.40;48.80;;;;;;6170502;28;20027;-70
2022/01/20 07:01:15;;;;;;;3.70;1.25;;;19.40;48.80;;;;;;6184599;28;20034;-70
2022/01/20 07:04:16;;;;;;;4.35;1.60;;;19.40;48.80;;;;;;6184236;28;20366;-70
2022/01/20 07:07:17;;;;;;;3.03;1.13;;;19.40;48.80;;;;;;6193872;28;20058;-70
2022/01/20 07:10:19;;;;;;;3.03;1.27;;;19.40;48.80;;;;;;6198029;28;20108;-70
2022/01/20 07:13:20;;;;;;;4.03;1.55;;;19.40;48.80;;;;;;6195326;28;20050;-70
2022/01/20 07:16:20;;;;;;;4.53;1.52;;;19.40;48.90;;;;;;6195207;28;20088;-70
2022/01/20 07:19:21;;;;;;;5.18;1.55;;;19.40;48.90;;;;;;6195233;28;20092;-70
2022/01/20 07:22:21;;;;;;;2.58;1.30;;;19.40;48.90;;;;;;6209498;28;20027;-70
2022/01/20 07:25:22;;;;;;;3.58;1.77;;;19.40;48.90;;;;;;6194355;28;20038;-70
2022/01/20 07:28:22;;;;;;;3.30;1.23;;;19.40;49.00;;;;;;6194811;28;20041;-70
2022/01/20 07:31:23;;;;;;;2.83;1.30;;;19.40;49.00;;;;;;6194855;28;20375;-70
2022/01/20 07:34:23;;;;;;;3.17;1.50;;;19.40;49.00;;;;;;6195018;28;20026;-70
2022/01/20 07:37:24;;;;;;;3.03;1.05;;;19.40;49.00;;;;;;6195227;28;20117;-70
2022/01/20 07:40:25;;;;;;;2.13;1.23;;;19.40;49.00;;;;;;6195246;28;20030;-70
2022/01/20 07:43:25;;;;;;;3.40;1.50;;;19.40;49.00;;;;;;6193417;28;20050;-70
2022/01/20 07:46:26;;;;;;;3.55;1.33;;;19.40;49.00;;;;;;6195302;28;20053;-70
2022/01/20 07:49:27;;;;;;;2.85;1.30;;;19.40;49.00;;;;;;6194982;28;20081;-70
2022/01/20 07:52:27;;;;;;;3.05;1.20;;;19.40;49.00;;;;;;6188552;28;20478;-70
2022/01/20 07:55:28;;;;;;;2.78;1.40;;;19.40;49.00;;;;;;6170873;28;20027;-70
2022/01/20 07:58:28;;;;;;;2.92;1.25;;;19.40;49.00;;;;;;6181033;28;20097;-70
2022/01/20 08:01:29;;;;;;;3.78;1.52;;;19.40;49.10;;;;;;6194727;28;20048;-70
2022/01/20 08:04:29;;;;;;;3.67;1.40;;;19.50;49.00;;;;;;6196410;28;20022;-70
2022/01/20 08:07:30;;;;;;;3.60;1.38;;;19.50;49.70;;;;;;6199788;28;20488;-70
2022/01/20 08:10:31;;;;;;;2.15;1.00;;;19.50;48.80;;;;;;6221060;28;20049;-70
2022/01/20 08:13:31;;;;;;;4.95;1.20;;;19.60;48.80;;;;;;6222865;28;20432;-71
2022/01/20 08:16:32;;;;;;;2.65;1.40;;;19.60;48.70;;;;;;6223536;28;20485;-70
2022/01/20 08:19:32;;;;;;;2.22;1.05;;;19.60;48.60;;;;;;6224085;28;20029;-70
2022/01/20 08:22:34;;;;;;;2.83;1.30;;;19.60;48.70;;;;;;6224441;28;20127;-71
2022/01/20 08:25:35;;;;;;;4.35;1.27;;;19.60;48.80;;;;;;6200772;28;20027;-70
2022/01/20 08:28:35;;;;;;;3.50;1.40;;;19.60;48.90;;;;;;6199219;28;20030;-70
2022/01/20 08:31:36;;;;;;;3.20;1.20;;;19.60;49.00;;;;;;6198082;28;20029;-70
2022/01/20 08:34:36;;;;;;;1.52;1.00;;;19.60;49.00;;;;;;6198857;28;20101;-70
2022/01/20 08:37:40;;;;;;;2.40;1.13;;;19.50;49.00;;;;;;6199051;28;20102;-70
2022/01/20 08:40:41;;;;;;;3.38;1.10;;;19.50;49.00;;;;;;6198790;28;20439;-70
2022/01/20 08:43:42;;;;;;;1.95;1.20;;;19.50;49.00;;;;;;6198101;28;20469;-70
2022/01/20 08:46:42;;;;;;;2.92;1.20;;;19.50;49.00;;;;;;6200274;28;20048;-70
2022/01/20 08:49:48;;;;;;;1.45;0.93;;;19.50;49.00;;;;;;6194845;28;20027;-70
2022/01/20 08:52:48;;;;;;;3.10;1.58;;;19.50;49.00;;;;;;6194691;28;20031;-70
2022/01/20 08:55:49;;;;;;;3.50;1.27;;;19.50;49.00;;;;;;6195484;28;20065;-70
2022/01/20 08:58:49;;;;;;;3.00;1.45;;;19.50;49.00;;;;;;6194945;28;20157;-70
2022/01/20 09:01:50;;;;;;;1.83;1.10;;;19.50;49.10;;;;;;6195217;28;20080;-70
2022/01/20 09:04:51;;;;;;;3.35;1.23;;;19.50;49.10;;;;;;6194887;28;20128;-70
2022/01/20 09:07:52;;;;;;;1.98;1.00;;;19.50;49.10;;;;;;6194682;28;21362;-70
2022/01/20 09:10:55;;;;;;;5.35;1.20;;;19.50;49.10;;;;;;6194154;28;20054;-71
2022/01/20 09:17:15;;;;;;;3.95;1.60;;;19.50;49.10;;;;;;6194076;28;20390;-70
2022/01/20 09:20:16;;;;;;;2.70;1.20;;;19.50;49.10;;;;;;6194982;28;20034;-70
2022/01/20 09:23:16;;;;;;;3.78;1.50;;;19.50;49.10;;;;;;6192775;28;20034;-70
2022/01/20 09:26:17;;;;;;;5.95;1.30;;;19.50;49.10;;;;;;6194007;28;20456;-72
2022/01/20 09:29:18;;;;;;;4.13;1.42;;;19.50;49.10;;;;;;6194614;28;20030;-70
2022/01/20 09:32:20;;;;;;;4.63;1.33;;;19.50;49.10;;;;;;6194126;28;20026;-70
2022/01/20 09:35:20;;;;;;;2.53;1.08;;;19.50;49.10;;;;;;6194232;28;20084;-70
2022/01/20 09:38:21;;;;;;;6.25;1.30;;;19.50;49.10;;;;;;6194159;28;20022;-70
2022/01/20 09:41:21;;;;;;;4.75;1.55;;;19.50;49.10;;;;;;6194538;28;20022;-70
2022/01/20 09:44:22;;;;;;;5.45;1.80;;;19.40;48.50;;;;;;6192839;28;20022;-70
2022/01/20 09:47:24;;;;;;;8.57;2.33;;;19.40;47.00;;;;;;6194181;28;20113;-70
2022/01/20 09:50:25;;;;;;;8.40;2.72;;;19.40;44.80;;;;;;6192303;28;20357;-70
2022/01/20 09:53:29;;;;;;;8.98;2.78;;;19.40;42.90;;;;;;6190497;28;20026;-69
2022/01/20 09:56:30;;;;;;;8.85;2.38;;;19.40;42.40;;;;;;6202116;28;20027;-70
2022/01/20 09:59:31;;;;;;;11.23;2.60;;;19.40;42.60;;;;;;6193584;28;20049;-70
2022/01/20 10:02:32;;;;;;;16.75;3.35;;;19.40;42.10;;;;;;6194256;28;20034;-70
2022/01/20 10:05:36;;;;;;;14.15;3.17;;;19.40;40.70;;;;;;6194090;28;20034;-70
2022/01/20 10:08:37;;;;;;;14.00;2.72;;;19.40;41.90;;;;;;6194037;28;20054;-71
2022/01/20 10:11:40;;;;;;;9.50;2.85;;;19.40;42.80;;;;;;6193459;28;20113;-69
2022/01/20 10:14:49;;;;;;;10.07;3.05;;;19.40;43.60;;;;;;6189748;28;20030;-69
2022/01/20 10:17:49;;;;;;;8.23;2.38;;;19.50;44.10;;;;;;6193528;28;20030;-70
2022/01/20 10:21:02;;;;;;;8.27;2.25;;;19.50;44.40;;;;;;6192888;28;20077;-69
2022/01/20 10:24:11;;;;;;;8.90;2.58;;;19.50;45.00;;;;;;6192601;28;20019;-69
2022/01/20 10:27:13;;;;;;;6.80;2.20;;;19.50;45.30;;;;;;6193067;28;20053;-69
2022/01/20 10:30:14;;;;;;;12.40;2.67;;;19.40;45.20;;;;;;6192543;28;20033;-69
2022/01/20 10:33:14;;;;;;;6.07;2.00;;;19.40;45.40;;;;;;6192645;28;20482;-69
2022/01/20 10:36:15;;;;;;;6.40;2.33;;;19.40;45.80;;;;;;6192326;28;20529;-69
2022/01/20 10:39:15;;;;;;;6.40;2.47;;;19.40;46.00;;;;;;6193447;28;20046;-69
2022/01/20 10:42:22;;;;;;;6.65;2.08;;;19.50;46.30;;;;;;6192388;28;20101;-69
2022/01/20 10:45:29;;;;;;;7.25;2.30;;;19.40;46.30;;;;;;6185617;28;20022;-70
2022/01/20 10:48:29;;;;;;;5.85;2.10;;;19.40;46.40;;;;;;6190132;28;20038;-69
2022/01/20 10:51:30;;;;;;;5.65;1.90;;;19.40;46.50;;;;;;6191744;28;20600;-69
2022/01/20 10:54:38;;;;;;;7.47;2.47;;;19.40;46.50;;;;;;6191239;28;20081;-69
2022/01/20 10:57:39;;;;;;;6.60;1.75;;;19.50;46.80;;;;;;6191541;28;20465;-69
2022/01/20 11:00:47;;;;;;;8.38;2.70;;;19.40;46.80;;;;;;6191722;28;20042;-69
2022/01/20 11:03:48;;;;;;;14.52;2.92;;;19.40;45.10;;;;;;6191466;28;20026;-70
2022/01/20 11:06:53;;;;;;;13.95;3.38;;;19.30;42.90;;;;;;6191899;28;20377;-70
2022/01/20 11:10:00;;;;;;;15.75;3.42;;;19.30;42.00;;;;;;6187661;28;20043;-69
2022/01/20 11:13:00;;;;;;;17.02;3.70;;;19.30;41.20;;;;;;6192042;28;20026;-69
2022/01/20 11:16:01;;;;;;;16.20;3.80;;;19.30;40.10;;;;;;6191397;28;20049;-69
2022/01/20 11:19:01;;;;;;;13.82;4.13;;;19.30;40.00;;;;;;6191093;28;20026;-69
2022/01/20 11:22:07;;;;;;;15.32;3.63;;;19.30;39.60;;;;;;6191513;28;20391;-69
2022/01/20 11:25:09;;;;;;;13.52;3.30;;;19.30;40.00;;;;;;6191523;28;20804;-69
2022/01/20 11:28:12;;;;;;;13.27;3.47;;;19.30;39.30;;;;;;6190638;28;20058;-69
2022/01/20 11:31:13;;;;;;;13.60;3.78;;;19.30;39.10;;;;;;6192055;28;20041;-69
2022/01/20 11:34:18;;;;;;;12.63;3.03;;;19.20;39.10;;;;;;6189555;28;20030;-69
2022/01/20 11:37:23;;;;;;;;;;;19.20;39.80;;;;;;6190232;28;20112;-69
2022/01/20 11:40:24;;;;;;;15.00;3.55;;;19.20;38.90;;;;;;6188992;28;20296;-69
2022/01/20 11:43:36;;;;;;;17.05;3.72;;;19.20;38.60;;;;;;6189951;28;20041;-69
2022/01/20 11:46:44;;;;;;;15.35;4.10;;;19.20;38.40;;;;;;6190765;28;20042;-69
2022/01/20 11:49:45;;;;;;;13.43;3.90;;;19.20;38.10;;;;;;6190649;28;20038;-69
2022/01/20 11:52:46;;;;;;;8.77;3.13;;;19.20;37.50;;;;;;6191056;28;20023;-70
2022/01/20 11:55:52;;;;;;;13.30;3.53;;;19.30;38.00;;;;;;6190439;28;20043;-70
2022/01/20 11:58:52;;;;;;;13.85;3.20;;;19.30;38.50;;;;;;6191405;28;20073;-69
2022/01/20 12:01:54;;;;;;;8.98;3.05;;;19.30;39.50;;;;;;6191580;28;20101;-69
2022/01/20 12:04:54;;;;;;;11.73;3.28;;;19.30;40.20;;;;;;6190005;28;20030;-69
2022/01/20 12:08:07;;;;;;;8.45;3.03;;;19.30;40.20;;;;;;6188772;28;20485;-68
2022/01/20 12:11:09;;;;;;;11.18;3.38;;;19.30;40.80;;;;;;6189428;28;20057;-68
2022/01/20 12:14:09;;;;;;;9.48;3.05;;;19.30;41.00;;;;;;6188906;28;20030;-68
2022/01/20 12:17:17;;;;;;;9.32;2.92;;;19.30;41.40;;;;;;6189457;28;20116;-69
2022/01/20 12:20:18;;;;;;;11.38;2.90;;;19.30;41.60;;;;;;6190049;28;20473;-69
2022/01/20 12:23:20;;;;;;;7.53;2.50;;;19.30;41.80;;;;;;6185202;28;20129;-68
2022/01/20 12:26:21;;;;;;;6.18;2.45;;;19.30;42.00;;;;;;6188084;28;20485;-69
2022/01/20 12:29:23;;;;;;;7.57;2.42;;;19.30;42.40;;;;;;6189740;28;20136;-69
2022/01/20 12:32:25;;;;;;;10.05;2.85;;;19.30;42.40;;;;;;6189067;28;20073;-68
2022/01/20 12:35:38;;;;;;;7.30;2.67;;;19.30;42.60;;;;;;6188431;28;20460;-69
2022/01/20 12:38:39;;;;;;;10.25;2.83;;;19.30;42.80;;;;;;6189343;28;20038;-68
2022/01/20 12:41:39;;;;;;;7.68;2.47;;;19.30;42.90;;;;;;6190080;28;20516;-69
2022/01/20 12:44:49;;;;;;;8.73;2.58;;;19.30;43.00;;;;;;6189614;28;20030;-68
2022/01/20 12:47:50;;;;;;;6.63;2.35;;;19.30;42.90;;;;;;6189710;28;20034;-68
2022/01/20 12:50:52;;;;;;;6.40;2.22;;;19.30;43.50;;;;;;6191212;28;20501;-68
2022/01/20 12:53:57;;;;;;;6.45;2.03;;;19.30;43.20;;;;;;6194210;28;20026;-68
2022/01/20 12:57:02;;;;;;;7.18;2.25;;;19.40;43.30;;;;;;6190060;28;20045;-69
2022/01/20 13:00:07;;;;;;;6.72;2.45;;;19.30;43.40;;;;;;6194027;28;20029;-69
2022/01/20 13:03:07;;;;;;;4.15;1.88;;;19.40;43.60;;;;;;6193803;28;20092;-68
2022/01/20 13:06:20;;;;;;;7.38;2.20;;;19.40;43.80;;;;;;6194012;28;20034;-68
2022/01/20 13:09:23;;;;;;;7.32;2.50;;;19.40;43.90;;;;;;6193395;28;20049;-68
2022/01/20 13:12:39;;;;;;;5.63;2.03;;;19.30;44.00;;;;;;6193239;28;20081;-68
2022/01/20 13:15:39;;;;;;;6.38;2.10;;;19.40;44.10;;;;;;6192931;28;20026;-69
2022/01/20 13:18:50;;;;;;;5.40;1.83;;;19.40;44.30;;;;;;6193803;28;20041;-69
2022/01/20 13:21:54;;;;;;;6.32;2.15;;;19.40;44.40;;;;;;6193417;28;20065;-69
2022/01/20 13:25:04;;;;;;;4.28;1.60;;;19.40;44.50;;;;;;6193718;28;20033;-69
2022/01/20 13:28:07;;;;;;;6.57;2.50;;;19.40;45.20;;;;;;6193687;28;20317;-69
2022/01/20 13:31:16;;;;;;;6.35;1.88;;;19.40;44.50;;;;;;6190883;28;20034;-69
2022/01/20 13:34:19;;;;;;;4.53;1.90;;;19.40;44.60;;;;;;6190799;28;20111;-68
2022/01/20 13:37:19;;;;;;;4.38;1.85;;;19.40;44.70;;;;;;6192965;28;20425;-68
2022/01/20 13:40:20;;;;;;;5.03;1.77;;;19.40;44.60;;;;;;6192672;28;20054;-68
2022/01/20 13:46:41;;;;;;;4.72;1.67;;;19.40;44.90;;;;;;6192771;28;20042;-68
2022/01/20 13:49:53;;;;;;;6.05;2.03;;;19.40;44.90;;;;;;6192571;28;20042;-69
2022/01/20 13:52:54;;;;;;;5.25;1.80;;;19.40;45.10;;;;;;6192554;28;20408;-68
2022/01/20 13:55:58;;;;;;;4.13;1.85;;;19.40;45.10;;;;;;6192481;28;20165;-68
2022/01/20 13:59:10;;;;;;;3.20;1.60;;;19.40;45.10;;;;;;6190410;28;20030;-68
2022/01/20 14:02:10;;;;;;;4.05;1.70;;;19.40;45.10;;;;;;6202184;28;20030;-68
2022/01/20 14:05:11;;;;;;;4.40;1.55;;;19.40;45.20;;;;;;6191653;28;20042;-68
2022/01/20 14:08:11;;;;;;;3.97;1.90;;;19.40;45.20;;;;;;6190722;28;20105;-68
2022/01/20 14:11:12;;;;;;;3.13;1.40;;;19.40;45.30;;;;;;6192462;28;20470;-68
2022/01/20 14:14:12;;;;;;;4.05;1.67;;;19.40;45.30;;;;;;6195062;28;20034;-68
2022/01/20 14:17:18;;;;;;;7.10;1.70;;;19.40;45.40;;;;;;6195363;28;20463;-69
2022/01/20 14:20:23;;;;;;;4.63;1.60;;;19.40;45.40;;;;;;6196038;28;20033;-68
2022/01/20 14:23:23;;;;;;;3.67;1.60;;;19.40;45.50;;;;;;6194671;28;20096;-68
2022/01/20 14:26:29;;;;;;;4.80;1.77;;;19.40;45.50;;;;;;6196047;28;20034;-69
2022/01/20 14:29:29;;;;;;;3.60;1.40;;;19.40;45.50;;;;;;6195830;28;20038;-69
2022/01/20 14:32:30;;;;;;;4.07;1.80;;;19.40;45.50;;;;;;6196191;28;20101;-68
2022/01/20 14:35:31;;;;;;;3.05;1.40;;;19.40;45.60;;;;;;6195289;28;20019;-68
2022/01/20 14:38:32;;;;;;;2.63;1.23;;;19.40;45.60;;;;;;6195676;28;20482;-69
2022/01/20 14:41:32;;;;;;;4.47;1.70;;;19.40;45.60;;;;;;6195540;28;20025;-69
2022/01/20 14:44:34;;;;;;;3.58;1.55;;;19.40;45.60;;;;;;6194995;28;20540;-69
2022/01/20 14:47:35;;;;;;;4.53;1.42;;;19.40;45.70;;;;;;6195068;28;20125;-69
2022/01/20 14:50:35;;;;;;;3.67;1.52;;;19.40;45.70;;;;;;6194842;28;20025;-69
2022/01/20 14:53:36;;;;;;;3.03;1.35;;;19.40;45.80;;;;;;6194649;28;20030;-68
2022/01/20 14:56:36;;;;;;;2.80;1.45;;;19.40;45.80;;;;;;6195835;28;20041;-69
2022/01/20 14:59:37;;;;;;;3.58;1.50;;;19.40;45.80;;;;;;6194577;28;20031;-69
2022/01/20 15:02:38;;;;;;;3.25;1.30;;;19.40;45.90;;;;;;6194993;28;20488;-68
2022/01/20 15:05:39;;;;;;;3.28;1.77;;;19.40;45.90;;;;;;6193000;28;20023;-69
2022/01/20 15:08:40;;;;;;;3.30;1.45;;;19.40;45.90;;;;;;6185077;28;20519;-68
2022/01/20 15:11:40;;;;;;;4.50;1.40;;;19.40;45.90;;;;;;6194555;28;20054;-70
2022/01/20 15:14:41;;;;;;;3.40;1.40;;;19.40;45.90;;;;;;6193259;28;20577;-69
2022/01/20 15:17:43;;;;;;;2.50;1.10;;;19.50;46.10;;;;;;6195555;28;20081;-69
2022/01/20 15:20:44;;;;;;;3.22;1.30;;;19.50;46.10;;;;;;6193656;28;20169;-68
2022/01/20 15:23:44;;;;;;;3.42;1.30;;;19.50;46.00;;;;;;6192083;28;20030;-68
2022/01/20 15:26:45;;;;;;;3.65;1.20;;;19.40;46.00;;;;;;6194419;28;20050;-69
2022/01/20 15:29:45;;;;;;;4.47;1.30;;;19.40;46.00;;;;;;6193521;28;20117;-69
2022/01/20 15:32:46;;;;;;;6.15;1.58;;;19.40;46.10;;;;;;6194104;28;20033;-70
2022/01/20 15:35:46;;;;;;;4.18;1.40;;;19.40;46.10;;;;;;6194217;28;20022;-68
2022/01/20 15:38:47;;;;;;;2.78;1.08;;;19.40;46.10;;;;;;6194066;28;20030;-69
2022/01/20 15:41:49;;;;;;;1.90;1.00;;;19.40;46.20;;;;;;6194242;28;20062;-69
2022/01/20 15:44:50;;;;;;;2.70;1.20;;;19.40;46.20;;;;;;6193958;28;20064;-69
2022/01/20 15:47:50;;;;;;;4.07;1.33;;;19.40;46.20;;;;;;6193794;28;20257;-68
2022/01/20 15:50:51;;;;;;;3.47;1.20;;;19.40;45.30;;;;;;6193213;28;20027;-68
2022/01/20 15:53:52;;;;;;;11.75;2.22;;;19.40;45.10;;;;;;6184922;28;20022;-69
2022/01/20 15:56:52;;;;;;;20.67;7.20;;;19.40;45.30;;;;;;6193345;28;20085;-68
2022/01/20 15:59:53;;;;;;;8.43;2.38;;;19.40;45.80;;;;;;6193313;28;20481;-68
2022/01/20 16:02:53;;;;;;;16.35;5.80;;;19.40;45.50;;;;;;6193757;28;20389;-69
2022/01/20 16:05:54;;;;;;;19.95;7.93;;;19.40;44.80;;;;;;6193425;28;20034;-68
2022/01/20 16:08:54;;;;;;;22.50;7.45;;;19.40;43.10;;;;;;6189823;28;20062;-69
2022/01/20 16:11:55;;;;;;;22.63;8.35;;;19.40;41.50;;;;;;6193742;28;20105;-69
2022/01/20 16:14:55;;;;;;;16.52;7.35;;;19.40;41.10;;;;;;6192210;28;20097;-69
2022/01/20 16:17:57;;;;;;;15.73;7.05;;;19.40;39.70;;;;;;6193657;28;20037;-69
2022/01/20 16:20:58;;;;;;;14.43;7.22;;;19.40;40.10;;;;;;6193274;28;20034;-68
2022/01/20 16:23:59;;;;;;;18.45;10.05;;;19.40;39.60;;;;;;6186813;28;20612;-69
2022/01/20 16:27:00;;;;;;;18.17;9.45;;;19.40;39.70;;;;;;6188395;28;20077;-69
2022/01/20 16:30:00;;;;;;;15.20;7.18;;;19.40;39.50;;;;;;6175092;28;20520;-68
2022/01/20 16:33:01;;;;;;;11.45;5.95;;;19.30;39.90;;;;;;6183974;28;20129;-69
2022/01/20 16:36:02;;;;;;;10.35;5.50;;;19.30;40.20;;;;;;6197912;28;20396;-69
2022/01/20 16:39:03;;;;;;;10.90;5.50;;;19.30;40.20;;;;;;6196390;28;20023;-69
2022/01/20 16:42:04;;;;;;;10.90;4.05;;;19.30;40.00;;;;;;6198079;28;20584;-69
2022/01/20 16:45:06;;;;;;;11.43;4.60;;;19.20;39.10;;;;;;6197553;28;20026;-69
2022/01/20 16:48:07;;;;;;;10.43;4.40;;;19.20;39.10;;;;;;6198312;28;20030;-69
2022/01/20 16:51:07;;;;;;;7.47;3.22;;;19.20;38.80;;;;;;6197775;28;20026;-69
2022/01/20 16:54:08;;;;;;;7.78;3.47;;;19.20;39.60;;;;;;6197242;28;20026;-68